sensor_id;sensor_type;location;lat;lon;timestamp;pressure;altitude;pressure_sealevel;temperature;humidity
34103;BME280;20381;54.498;18.206;2022-09-09T00:03:54;99358.69;;;13.42;61.32
34103;BME280;20381;54.498;18.206;2022-09-09T00:06:30;99356.90;;;13.43;61.38
34103;BME280;20381;54.498;18.206;2022-09-09T00:11:48;99356.55;;;13.42;61.43
34103;BME280;20381;54.498;18.206;2022-09-09T00:14:47;99357.46;;;13.41;61.42
34103;BME280;20381;54.498;18.206;2022-09-09T00:20:19;99350.19;;;13.39;61.49
34103;BME280;20381;54.498;18.206;2022-09-09T00:22:59;99350.19;;;13.39;61.53
34103;BME280;20381;54.498;18.206;2022-09-09T00:25:34;99340.26;;;13.37;61.50
34103;BME280;20381;54.498;18.206;2022-09-09T00:28:00;99333.52;;;13.33;61.52
34103;BME280;20381;54.498;18.206;2022-09-09T00:30:32;99337.09;;;13.32;61.63
34103;BME280;20381;54.498;18.206;2022-09-09T00:33:03;99336.53;;;13.27;61.68
34103;BME280;20381;54.498;18.206;2022-09-09T00:35:34;99330.37;;;13.28;61.78
34103;BME280;20381;54.498;18.206;2022-09-09T00:38:14;99325.27;;;13.25;61.83
34103;BME280;20381;54.498;18.206;2022-09-09T00:43:38;99313.23;;;13.22;61.90
34103;BME280;20381;54.498;18.206;2022-09-09T00:57:35;99319.79;;;13.15;62.06
34103;BME280;20381;54.498;18.206;2022-09-09T01:03:18;99321.19;;;13.13;62.10
34103;BME280;20381;54.498;18.206;2022-09-09T01:17:19;99319.24;;;13.10;62.21
34103;BME280;20381;54.498;18.206;2022-09-09T01:20:14;99308.67;;;13.11;62.27
34103;BME280;20381;54.498;18.206;2022-09-09T01:22:50;99312.21;;;13.10;62.30
34103;BME280;20381;54.498;18.206;2022-09-09T01:28:30;99316.53;;;13.11;62.30
34103;BME280;20381;54.498;18.206;2022-09-09T01:30:57;99317.45;;;13.10;62.29
34103;BME280;20381;54.498;18.206;2022-09-09T01:33:24;99320.27;;;13.07;62.28
34103;BME280;20381;54.498;18.206;2022-09-09T01:36:04;99317.66;;;13.07;62.32
34103;BME280;20381;54.498;18.206;2022-09-09T01:38:38;99327.42;;;13.05;62.36
34103;BME280;20381;54.498;18.206;2022-09-09T01:41:05;99315.43;;;13.01;62.31
34103;BME280;20381;54.498;18.206;2022-09-09T01:43:32;99325.91;;;13.01;62.35
34103;BME280;20381;54.498;18.206;2022-09-09T01:46:00;99325.55;;;13.00;62.36
34103;BME280;20381;54.498;18.206;2022-09-09T01:48:28;99328.53;;;13.01;62.38
34103;BME280;20381;54.498;18.206;2022-09-09T01:50:55;99330.32;;;13.01;62.49
34103;BME280;20381;54.498;18.206;2022-09-09T01:53:22;99314.59;;;13.01;62.52
34103;BME280;20381;54.498;18.206;2022-09-09T02:04:54;99321.42;;;13.03;62.56
34103;BME280;20381;54.498;18.206;2022-09-09T02:07:42;99322.17;;;13.05;62.57
34103;BME280;20381;54.498;18.206;2022-09-09T02:10:17;99319.55;;;13.05;62.55
34103;BME280;20381;54.498;18.206;2022-09-09T02:13:04;99323.48;;;13.05;62.55
34103;BME280;20381;54.498;18.206;2022-09-09T02:15:39;99317.66;;;13.07;62.57
34103;BME280;20381;54.498;18.206;2022-09-09T02:18:08;99309.07;;;13.05;62.55
34103;BME280;20381;54.498;18.206;2022-09-09T02:20:37;99319.91;;;13.06;62.54
34103;BME280;20381;54.498;18.206;2022-09-09T02:23:05;99324.80;;;13.05;62.59
34103;BME280;20381;54.498;18.206;2022-09-09T02:25:35;99315.63;;;13.05;62.61
34103;BME280;20381;54.498;18.206;2022-09-09T02:28:06;99313.92;;;13.04;62.58
34103;BME280;20381;54.498;18.206;2022-09-09T02:30:34;99321.42;;;13.03;62.68
34103;BME280;20381;54.498;18.206;2022-09-09T02:33:05;99316.38;;;13.00;62.74
34103;BME280;20381;54.498;18.206;2022-09-09T02:35:34;99320.39;;;12.98;62.77
34103;BME280;20381;54.498;18.206;2022-09-09T02:38:05;99323.84;;;12.99;62.77
34103;BME280;20381;54.498;18.206;2022-09-09T02:40:34;99314.67;;;12.99;62.87
34103;BME280;20381;54.498;18.206;2022-09-09T02:43:01;99321.81;;;12.97;62.94
34103;BME280;20381;54.498;18.206;2022-09-09T02:45:58;99317.89;;;12.97;63.01
34103;BME280;20381;54.498;18.206;2022-09-09T02:57:16;99316.78;;;12.80;63.35
34103;BME280;20381;54.498;18.206;2022-09-09T02:59:44;99330.05;;;12.91;63.26
34103;BME280;20381;54.498;18.206;2022-09-09T03:02:11;99328.29;;;12.91;63.30
34103;BME280;20381;54.498;18.206;2022-09-09T03:04:39;99337.91;;;12.91;63.31
34103;BME280;20381;54.498;18.206;2022-09-09T03:07:07;99337.46;;;12.91;63.28
34103;BME280;20381;54.498;18.206;2022-09-09T03:09:34;99340.52;;;12.91;63.27
34103;BME280;20381;54.498;18.206;2022-09-09T03:12:00;99341.47;;;12.90;63.34
34103;BME280;20381;54.498;18.206;2022-09-09T03:14:27;99339.80;;;12.89;63.34
34103;BME280;20381;54.498;18.206;2022-09-09T03:16:54;99346.16;;;12.85;63.69
34103;BME280;20381;54.498;18.206;2022-09-09T03:19:22;99348.41;;;12.76;63.63
34103;BME280;20381;54.498;18.206;2022-09-09T03:21:48;99352.55;;;12.66;63.76
34103;BME280;20381;54.498;18.206;2022-09-09T03:24:15;99357.61;;;12.55;64.02
34103;BME280;20381;54.498;18.206;2022-09-09T03:26:42;99359.84;;;12.40;64.14
34103;BME280;20381;54.498;18.206;2022-09-09T03:29:11;99366.58;;;12.29;64.46
34103;BME280;20381;54.498;18.206;2022-09-09T03:31:39;99367.22;;;12.19;64.66
34103;BME280;20381;54.498;18.206;2022-09-09T03:34:05;99371.22;;;12.10;64.83
34103;BME280;20381;54.498;18.206;2022-09-09T03:36:32;99371.27;;;12.01;65.37
34103;BME280;20381;54.498;18.206;2022-09-09T03:38:59;99370.98;;;11.92;65.40
34103;BME280;20381;54.498;18.206;2022-09-09T03:41:26;99365.32;;;11.83;65.59
34103;BME280;20381;54.498;18.206;2022-09-09T03:43:53;99362.52;;;11.79;65.85
34103;BME280;20381;54.498;18.206;2022-09-09T03:46:22;99364.92;;;11.75;66.02
34103;BME280;20381;54.498;18.206;2022-09-09T03:48:50;99370.44;;;11.71;66.20
34103;BME280;20381;54.498;18.206;2022-09-09T03:51:18;99372.47;;;11.65;66.44
34103;BME280;20381;54.498;18.206;2022-09-09T03:53:44;99358.15;;;11.57;66.61
34103;BME280;20381;54.498;18.206;2022-09-09T03:56:12;99368.61;;;11.57;66.85
34103;BME280;20381;54.498;18.206;2022-09-09T03:58:38;99377.72;;;11.50;67.15
34103;BME280;20381;54.498;18.206;2022-09-09T04:01:07;99379.38;;;11.43;67.21
34103;BME280;20381;54.498;18.206;2022-09-09T04:03:35;99382.88;;;11.35;67.49
34103;BME280;20381;54.498;18.206;2022-09-09T04:06:03;99386.20;;;11.30;67.73
34103;BME280;20381;54.498;18.206;2022-09-09T04:08:32;99385.95;;;11.19;68.08
34103;BME280;20381;54.498;18.206;2022-09-09T04:10:59;99385.95;;;11.19;68.08
34103;BME280;20381;54.498;18.206;2022-09-09T04:13:28;99389.80;;;11.05;68.91
34103;BME280;20381;54.498;18.206;2022-09-09T04:15:57;99389.80;;;11.05;68.91
34103;BME280;20381;54.498;18.206;2022-09-09T04:18:24;99396.83;;;10.95;69.27
34103;BME280;20381;54.498;18.206;2022-09-09T04:20:52;99396.56;;;10.84;69.56
34103;BME280;20381;54.498;18.206;2022-09-09T04:23:19;99394.99;;;10.73;69.69
34103;BME280;20381;54.498;18.206;2022-09-09T04:25:52;99393.08;;;10.68;69.80
34103;BME280;20381;54.498;18.206;2022-09-09T04:28:19;99385.78;;;10.66;69.79
34103;BME280;20381;54.498;18.206;2022-09-09T04:30:47;99384.84;;;10.67;70.01
34103;BME280;20381;54.498;18.206;2022-09-09T04:33:14;99383.94;;;10.68;70.32
34103;BME280;20381;54.498;18.206;2022-09-09T04:35:46;99383.94;;;10.68;70.59
34103;BME280;20381;54.498;18.206;2022-09-09T04:38:15;99394.55;;;10.65;70.87
34103;BME280;20381;54.498;18.206;2022-09-09T04:40:46;99387.62;;;10.64;70.89
34103;BME280;20381;54.498;18.206;2022-09-09T04:43:14;99395.62;;;10.61;71.23
34103;BME280;20381;54.498;18.206;2022-09-09T04:45:42;99389.79;;;10.56;71.60
34103;BME280;20381;54.498;18.206;2022-09-09T04:48:08;99395.95;;;10.55;72.01
34103;BME280;20381;54.498;18.206;2022-09-09T04:50:38;99388.28;;;10.51;72.00
34103;BME280;20381;54.498;18.206;2022-09-09T04:53:06;99396.95;;;10.52;72.94
34103;BME280;20381;54.498;18.206;2022-09-09T04:55:34;99391.42;;;10.49;72.71
34103;BME280;20381;54.498;18.206;2022-09-09T04:58:05;99400.66;;;10.48;73.22
34103;BME280;20381;54.498;18.206;2022-09-09T05:00:35;99400.72;;;10.46;73.18
34103;BME280;20381;54.498;18.206;2022-09-09T05:03:05;99392.52;;;10.45;100.00
34103;BME280;20381;54.498;18.206;2022-09-09T05:05:32;99398.64;;;10.44;78.90
34103;BME280;20381;54.498;18.206;2022-09-09T05:08:04;99402.95;;;10.45;77.83
34103;BME280;20381;54.498;18.206;2022-09-09T05:10:33;99391.28;;;10.44;78.36
34103;BME280;20381;54.498;18.206;2022-09-09T05:13:00;99402.19;;;10.43;78.57
34103;BME280;20381;54.498;18.206;2022-09-09T05:15:27;99398.27;;;10.43;79.40
34103;BME280;20381;54.498;18.206;2022-09-09T05:18:01;99401.88;;;10.41;79.13
34103;BME280;20381;54.498;18.206;2022-09-09T05:20:28;99394.98;;;10.40;78.83
34103;BME280;20381;54.498;18.206;2022-09-09T05:22:56;99401.05;;;10.40;78.70
34103;BME280;20381;54.498;18.206;2022-09-09T05:25:24;99401.05;;;10.40;78.85
34103;BME280;20381;54.498;18.206;2022-09-09T05:27:54;99399.20;;;10.42;80.60
34103;BME280;20381;54.498;18.206;2022-09-09T05:30:21;99404.59;;;10.39;79.72
34103;BME280;20381;54.498;18.206;2022-09-09T05:32:50;99397.82;;;10.35;79.45
34103;BME280;20381;54.498;18.206;2022-09-09T05:35:17;99408.50;;;10.39;79.77
34103;BME280;20381;54.498;18.206;2022-09-09T05:37:46;99406.27;;;10.40;79.83
34103;BME280;20381;54.498;18.206;2022-09-09T05:40:13;99401.88;;;10.41;79.98
34103;BME280;20381;54.498;18.206;2022-09-09T05:42:41;99404.86;;;10.42;80.70
34103;BME280;20381;54.498;18.206;2022-09-09T05:45:09;99402.72;;;10.41;80.26
34103;BME280;20381;54.498;18.206;2022-09-09T05:47:36;99400.72;;;10.46;80.99
34103;BME280;20381;54.498;18.206;2022-09-09T05:50:03;99407.03;;;10.42;80.58
34103;BME280;20381;54.498;18.206;2022-09-09T05:52:31;99407.41;;;10.43;81.22
34103;BME280;20381;54.498;18.206;2022-09-09T05:54:58;99407.94;;;10.41;81.00
34103;BME280;20381;54.498;18.206;2022-09-09T05:57:25;99414.87;;;10.42;81.46
34103;BME280;20381;54.498;18.206;2022-09-09T05:59:52;99413.16;;;10.41;81.28
34103;BME280;20381;54.498;18.206;2022-09-09T06:02:19;99412.25;;;10.42;81.42
34103;BME280;20381;54.498;18.206;2022-09-09T06:04:46;99413.00;;;10.44;81.83
34103;BME280;20381;54.498;18.206;2022-09-09T06:07:12;99420.45;;;10.43;82.12
34103;BME280;20381;54.498;18.206;2022-09-09T06:09:40;99416.54;;;10.43;82.49
34103;BME280;20381;54.498;18.206;2022-09-09T06:12:07;99413.00;;;10.44;82.52
34103;BME280;20381;54.498;18.206;2022-09-09T06:14:34;99419.98;;;10.44;83.09
34103;BME280;20381;54.498;18.206;2022-09-09T06:17:00;99419.52;;;10.44;82.83
34103;BME280;20381;54.498;18.206;2022-09-09T06:19:28;99425.14;;;10.45;83.10
34103;BME280;20381;54.498;18.206;2022-09-09T06:21:55;99425.82;;;10.49;83.90
34103;BME280;20381;54.498;18.206;2022-09-09T06:24:21;99431.14;;;10.47;83.34
34103;BME280;20381;54.498;18.206;2022-09-09T06:26:50;99425.92;;;10.47;83.53
34103;BME280;20381;54.498;18.206;2022-09-09T06:29:17;99428.37;;;10.50;83.64
34103;BME280;20381;54.498;18.206;2022-09-09T06:31:43;99425.75;;;10.50;83.32
34103;BME280;20381;54.498;18.206;2022-09-09T06:34:10;99426.50;;;10.52;83.44
34103;BME280;20381;54.498;18.206;2022-09-09T06:36:38;99429.98;;;10.53;83.58
34103;BME280;20381;54.498;18.206;2022-09-09T06:39:06;99425.19;;;10.52;84.41
34103;BME280;20381;54.498;18.206;2022-09-09T06:41:34;99429.67;;;10.50;84.18
34103;BME280;20381;54.498;18.206;2022-09-09T06:44:01;99431.88;;;10.49;84.45
34103;BME280;20381;54.498;18.206;2022-09-09T06:46:33;99428.37;;;10.50;84.07
34103;BME280;20381;54.498;18.206;2022-09-09T06:49:01;99430.20;;;10.48;84.72
34103;BME280;20381;54.498;18.206;2022-09-09T06:51:33;99440.64;;;10.48;85.51
34103;BME280;20381;54.498;18.206;2022-09-09T06:54:02;99435.18;;;10.44;84.67
34103;BME280;20381;54.498;18.206;2022-09-09T06:56:31;99445.09;;;10.46;85.12
34103;BME280;20381;54.498;18.206;2022-09-09T06:59:07;99442.64;;;10.43;84.90
34103;BME280;20381;54.498;18.206;2022-09-09T07:01:33;99441.80;;;10.43;85.23
34103;BME280;20381;54.498;18.206;2022-09-09T07:04:02;99445.41;;;10.40;85.59
34103;BME280;20381;54.498;18.206;2022-09-09T07:06:32;99451.69;;;10.36;85.55
34103;BME280;20381;54.498;18.206;2022-09-09T07:09:02;99455.77;;;10.33;86.03
34103;BME280;20381;54.498;18.206;2022-09-09T07:11:33;99461.55;;;10.31;85.75
34103;BME280;20381;54.498;18.206;2022-09-09T07:14:03;99466.52;;;10.27;85.86
34103;BME280;20381;54.498;18.206;2022-09-09T07:16:29;99462.73;;;10.24;86.34
34103;BME280;20381;54.498;18.206;2022-09-09T07:18:58;99466.27;;;10.23;85.91
34103;BME280;20381;54.498;18.206;2022-09-09T07:21:27;99469.63;;;10.25;86.08
34103;BME280;20381;54.498;18.206;2022-09-09T07:23:56;99471.33;;;10.26;86.29
34103;BME280;20381;54.498;18.206;2022-09-09T07:26:28;99471.83;;;10.34;85.87
34103;BME280;20381;54.498;18.206;2022-09-09T07:28:56;99471.83;;;10.34;85.87
34103;BME280;20381;54.498;18.206;2022-09-09T07:31:28;99471.67;;;10.37;86.11
34103;BME280;20381;54.498;18.206;2022-09-09T07:33:57;99471.73;;;10.36;86.02
34103;BME280;20381;54.498;18.206;2022-09-09T07:36:29;99472.82;;;10.32;86.01
34103;BME280;20381;54.498;18.206;2022-09-09T07:39:02;99475.49;;;10.30;86.24
34103;BME280;20381;54.498;18.206;2022-09-09T07:41:34;99470.37;;;10.28;86.40
34103;BME280;20381;54.498;18.206;2022-09-09T07:44:08;99477.02;;;10.25;86.63
34103;BME280;20381;54.498;18.206;2022-09-09T07:46:37;99475.93;;;10.21;86.81
34103;BME280;20381;54.498;18.206;2022-09-09T07:49:05;99479.16;;;10.17;86.34
34103;BME280;20381;54.498;18.206;2022-09-09T07:51:34;99484.84;;;10.17;86.35
34103;BME280;20381;54.498;18.206;2022-09-09T07:54:08;99468.78;;;10.16;86.93
34103;BME280;20381;54.498;18.206;2022-09-09T07:56:38;99482.51;;;10.11;86.73
34103;BME280;20381;54.498;18.206;2022-09-09T07:59:05;99483.97;;;10.07;87.36
34103;BME280;20381;54.498;18.206;2022-09-09T08:01:41;99478.53;;;10.03;87.61
34103;BME280;20381;54.498;18.206;2022-09-09T08:04:11;99479.43;;;10.02;87.53
34103;BME280;20381;54.498;18.206;2022-09-09T08:06:43;99482.81;;;10.04;87.11
34103;BME280;20381;54.498;18.206;2022-09-09T08:09:19;99484.52;;;10.05;87.59
34103;BME280;20381;54.498;18.206;2022-09-09T08:11:46;99485.58;;;10.01;87.58
34103;BME280;20381;54.498;18.206;2022-09-09T08:14:13;99484.80;;;9.99;87.79
34103;BME280;20381;54.498;18.206;2022-09-09T08:16:43;99489.12;;;10.00;87.93
34103;BME280;20381;54.498;18.206;2022-09-09T08:19:13;99492.09;;;10.01;88.03
34103;BME280;20381;54.498;18.206;2022-09-09T08:21:41;99492.04;;;10.03;87.56
34103;BME280;20381;54.498;18.206;2022-09-09T08:24:10;99489.34;;;10.04;88.03
34103;BME280;20381;54.498;18.206;2022-09-09T08:26:40;99499.39;;;10.03;88.24
34103;BME280;20381;54.498;18.206;2022-09-09T08:29:08;99503.22;;;10.05;88.51
34103;BME280;20381;54.498;18.206;2022-09-09T08:31:41;99500.08;;;10.07;88.12
34103;BME280;20381;54.498;18.206;2022-09-09T08:34:09;99505.46;;;10.13;88.37
34103;BME280;20381;54.498;18.206;2022-09-09T08:36:38;99504.94;;;10.15;88.27
34103;BME280;20381;54.498;18.206;2022-09-09T08:39:08;99499.63;;;10.16;88.22
34103;BME280;20381;54.498;18.206;2022-09-09T08:50:29;99503.45;;;10.45;88.65
34103;BME280;20381;54.498;18.206;2022-09-09T08:55:44;99501.76;;;10.62;88.57
34103;BME280;20381;54.498;18.206;2022-09-09T08:58:23;99490.06;;;10.69;88.63
34103;BME280;20381;54.498;18.206;2022-09-09T09:01:16;99498.81;;;10.77;88.62
34103;BME280;20381;54.498;18.206;2022-09-09T09:04:11;99499.88;;;10.90;88.58
34103;BME280;20381;54.498;18.206;2022-09-09T09:09:29;99497.08;;;11.02;88.66
34103;BME280;20381;54.498;18.206;2022-09-09T09:12:20;99497.95;;;11.18;88.90
34103;BME280;20381;54.498;18.206;2022-09-09T09:14:52;99500.91;;;11.28;88.70
34103;BME280;20381;54.498;18.206;2022-09-09T09:17:22;99500.27;;;11.31;88.41
34103;BME280;20381;54.498;18.206;2022-09-09T09:19:50;99507.55;;;11.26;88.22
34103;BME280;20381;54.498;18.206;2022-09-09T09:30:25;99510.91;;;11.04;88.47
34103;BME280;20381;54.498;18.206;2022-09-09T09:32:58;99513.28;;;11.00;88.31
34103;BME280;20381;54.498;18.206;2022-09-09T09:35:28;99514.22;;;10.98;88.43
34103;BME280;20381;54.498;18.206;2022-09-09T09:37:54;99507.08;;;10.93;88.46
34103;BME280;20381;54.498;18.206;2022-09-09T09:40:22;99509.25;;;10.85;88.61
34103;BME280;20381;54.498;18.206;2022-09-09T09:43:00;99510.71;;;10.82;88.89
34103;BME280;20381;54.498;18.206;2022-09-09T09:45:40;99514.79;;;10.79;88.71
34103;BME280;20381;54.498;18.206;2022-09-09T09:48:14;99514.85;;;10.78;88.88
34103;BME280;20381;54.498;18.206;2022-09-09T09:50:53;99512.08;;;10.81;88.90
34103;BME280;20381;54.498;18.206;2022-09-09T09:53:27;99511.18;;;10.82;88.87
34103;BME280;20381;54.498;18.206;2022-09-09T09:56:01;99515.16;;;10.80;88.83
34103;BME280;20381;54.498;18.206;2022-09-09T09:58:36;99515.94;;;10.82;89.14
34103;BME280;20381;54.498;18.206;2022-09-09T10:01:30;99509.94;;;10.80;89.20
34103;BME280;20381;54.498;18.206;2022-09-09T10:04:12;99513.08;;;10.78;89.60
34103;BME280;20381;54.498;18.206;2022-09-09T10:06:45;99509.25;;;10.85;89.99
34103;BME280;20381;54.498;18.206;2022-09-09T10:09:29;99506.38;;;10.98;89.79
34103;BME280;20381;54.498;18.206;2022-09-09T10:21:13;99507.91;;;11.27;89.62
34103;BME280;20381;54.498;18.206;2022-09-09T10:24:36;99503.12;;;11.35;89.62
34103;BME280;20381;54.498;18.206;2022-09-09T10:30:21;99503.36;;;11.31;90.13
34103;BME280;20381;54.498;18.206;2022-09-09T10:33:02;99503.12;;;11.35;89.76
34103;BME280;20381;54.498;18.206;2022-09-09T10:38:30;99481.17;;;11.22;89.59
34103;BME280;20381;54.498;18.206;2022-09-09T10:41:31;99469.05;;;11.21;89.62
34103;BME280;20381;54.498;18.206;2022-09-09T10:50:14;99513.33;;;11.56;89.94
34103;BME280;20381;54.498;18.206;2022-09-09T10:55:50;99509.47;;;11.63;89.94
34103;BME280;20381;54.498;18.206;2022-09-09T10:58:35;99515.00;;;11.65;89.54
34103;BME280;20381;54.498;18.206;2022-09-09T11:01:20;99515.00;;;11.65;89.54
34103;BME280;20381;54.498;18.206;2022-09-09T11:03:55;99511.48;;;11.58;89.76
34103;BME280;20381;54.498;18.206;2022-09-09T11:06:27;99517.66;;;11.57;89.88
34103;BME280;20381;54.498;18.206;2022-09-09T11:09:00;99507.43;;;11.52;89.95
34103;BME280;20381;54.498;18.206;2022-09-09T11:11:41;99509.55;;;11.46;90.29
34103;BME280;20381;54.498;18.206;2022-09-09T11:14:31;99505.05;;;11.48;90.31
34103;BME280;20381;54.498;18.206;2022-09-09T11:17:15;99515.75;;;11.52;90.18
34103;BME280;20381;54.498;18.206;2022-09-09T11:19:42;99516.71;;;11.58;90.10
34103;BME280;20381;54.498;18.206;2022-09-09T11:23:17;99517.66;;;11.57;90.07
34103;BME280;20381;54.498;18.206;2022-09-09T11:25:17;99523.31;;;11.65;90.69
34103;BME280;20381;54.498;18.206;2022-09-09T11:28:28;99523.31;;;11.65;90.69
34103;BME280;20381;54.498;18.206;2022-09-09T11:31:13;99526.18;;;11.76;90.41
34103;BME280;20381;54.498;18.206;2022-09-09T11:37:22;99526.11;;;11.94;90.42
34103;BME280;20381;54.498;18.206;2022-09-09T11:40:23;99527.78;;;11.95;90.31
34103;BME280;20381;54.498;18.206;2022-09-09T11:43:09;99527.96;;;11.92;90.15
34103;BME280;20381;54.498;18.206;2022-09-09T11:45:53;99533.56;;;11.93;90.67
34103;BME280;20381;54.498;18.206;2022-09-09T11:48:31;99530.75;;;11.89;90.40
34103;BME280;20381;54.498;18.206;2022-09-09T11:51:10;99535.64;;;11.95;90.49
34103;BME280;20381;54.498;18.206;2022-09-09T11:56:43;99536.59;;;12.01;90.59
34103;BME280;20381;54.498;18.206;2022-09-09T11:59:28;99537.48;;;12.08;90.43
34103;BME280;20381;54.498;18.206;2022-09-09T12:04:40;99529.75;;;12.14;90.62
34103;BME280;20381;54.498;18.206;2022-09-09T12:10:20;99527.95;;;12.30;90.81
34103;BME280;20381;54.498;18.206;2022-09-09T12:12:52;99533.04;;;12.41;90.77
34103;BME280;20381;54.498;18.206;2022-09-09T12:15:27;99527.23;;;12.43;90.57
34103;BME280;20381;54.498;18.206;2022-09-09T12:17:57;99528.94;;;12.51;90.59
34103;BME280;20381;54.498;18.206;2022-09-09T12:20:36;99534.83;;;12.54;90.35
34103;BME280;20381;54.498;18.206;2022-09-09T12:23:24;99532.47;;;12.43;90.12
34103;BME280;20381;54.498;18.206;2022-09-09T12:26:21;99530.38;;;12.34;90.43
34103;BME280;20381;54.498;18.206;2022-09-09T12:29:21;99530.56;;;12.30;90.50
34103;BME280;20381;54.498;18.206;2022-09-09T12:31:54;99533.54;;;12.24;90.75
34103;BME280;20381;54.498;18.206;2022-09-09T12:34:37;99531.11;;;12.28;90.71
34103;BME280;20381;54.498;18.206;2022-09-09T12:37:40;99533.72;;;12.21;90.65
34103;BME280;20381;54.498;18.206;2022-09-09T12:40:23;99532.05;;;12.27;91.05
34103;BME280;20381;54.498;18.206;2022-09-09T12:42:52;99531.69;;;12.34;90.80
34103;BME280;20381;54.498;18.206;2022-09-09T12:45:24;99531.34;;;12.40;90.96
34103;BME280;20381;54.498;18.206;2022-09-09T12:47:59;99537.16;;;12.45;90.68
34103;BME280;20381;54.498;18.206;2022-09-09T12:50:25;99533.59;;;12.46;90.76
34103;BME280;20381;54.498;18.206;2022-09-09T12:52:56;99536.90;;;12.49;90.81
34103;BME280;20381;54.498;18.206;2022-09-09T12:55:30;99539.05;;;12.57;90.94
34103;BME280;20381;54.498;18.206;2022-09-09T12:58:00;99533.48;;;12.63;90.72
34103;BME280;20381;54.498;18.206;2022-09-09T13:00:29;99541.52;;;12.67;90.66
34103;BME280;20381;54.498;18.206;2022-09-09T13:02:58;99548.53;;;12.67;90.59
34103;BME280;20381;54.498;18.206;2022-09-09T13:05:35;99544.97;;;12.68;90.58
34103;BME280;20381;54.498;18.206;2022-09-09T13:08:13;99544.86;;;12.62;90.41
34103;BME280;20381;54.498;18.206;2022-09-09T13:10:49;99542.61;;;12.56;90.41
34103;BME280;20381;54.498;18.206;2022-09-09T13:13:34;99539.62;;;12.55;90.68
34103;BME280;20381;54.498;18.206;2022-09-09T13:16:02;99534.83;;;12.54;90.62
34103;BME280;20381;54.498;18.206;2022-09-09T13:18:37;99535.87;;;12.52;90.63
34103;BME280;20381;54.498;18.206;2022-09-09T13:21:06;99537.19;;;12.52;90.78
34103;BME280;20381;54.498;18.206;2022-09-09T13:23:35;99534.20;;;12.58;90.83
34103;BME280;20381;54.498;18.206;2022-09-09T13:26:23;99533.63;;;12.60;90.84
34103;BME280;20381;54.498;18.206;2022-09-09T13:28:53;99528.39;;;12.53;90.46
34103;BME280;20381;54.498;18.206;2022-09-09T13:31:29;99523.12;;;12.46;90.73
34103;BME280;20381;54.498;18.206;2022-09-09T13:33:58;99526.50;;;12.48;90.94
34103;BME280;20381;54.498;18.206;2022-09-09T13:36:40;99521.48;;;12.52;91.02
34103;BME280;20381;54.498;18.206;2022-09-09T13:39:15;99529.52;;;12.56;90.83
34103;BME280;20381;54.498;18.206;2022-09-09T13:41:45;99527.27;;;12.50;90.72
34103;BME280;20381;54.498;18.206;2022-09-09T13:44:17;99519.41;;;12.50;90.97
34103;BME280;20381;54.498;18.206;2022-09-09T13:47:03;99523.52;;;12.54;91.09
34103;BME280;20381;54.498;18.206;2022-09-09T13:49:32;99515.41;;;12.59;91.04
34103;BME280;20381;54.498;18.206;2022-09-09T13:52:11;99519.22;;;12.60;90.93
34103;BME280;20381;54.498;18.206;2022-09-09T13:54:46;99517.00;;;12.61;90.94
34103;BME280;20381;54.498;18.206;2022-09-09T13:57:23;99514.56;;;12.58;90.82
34103;BME280;20381;54.498;18.206;2022-09-09T13:59:52;99511.18;;;12.56;90.96
34103;BME280;20381;54.498;18.206;2022-09-09T14:02:20;99500.97;;;12.51;90.87
34103;BME280;20381;54.498;18.206;2022-09-09T14:04:49;99497.33;;;12.47;90.89
34103;BME280;20381;54.498;18.206;2022-09-09T14:07:17;99504.97;;;12.43;91.03
34103;BME280;20381;54.498;18.206;2022-09-09T14:09:44;99498.23;;;12.39;91.18
34103;BME280;20381;54.498;18.206;2022-09-09T14:12:13;99496.93;;;12.39;91.13
34103;BME280;20381;54.498;18.206;2022-09-09T14:14:44;99494.09;;;12.35;91.19
34103;BME280;20381;54.498;18.206;2022-09-09T14:17:10;99499.14;;;12.30;91.40
34103;BME280;20381;54.498;18.206;2022-09-09T14:19:36;99498.93;;;12.26;91.37
34103;BME280;20381;54.498;18.206;2022-09-09T14:22:03;99494.64;;;12.25;91.41
34103;BME280;20381;54.498;18.206;2022-09-09T14:24:30;99489.41;;;12.25;91.46
34103;BME280;20381;54.498;18.206;2022-09-09T14:26:57;99488.31;;;12.29;91.67
34103;BME280;20381;54.498;18.206;2022-09-09T14:29:23;99488.50;;;12.34;91.72
34103;BME280;20381;54.498;18.206;2022-09-09T14:31:52;99490.02;;;12.45;92.01
34103;BME280;20381;54.498;18.206;2022-09-09T14:34:18;99490.05;;;12.59;92.02
34103;BME280;20381;54.498;18.206;2022-09-09T14:36:45;99491.20;;;12.69;91.95
34103;BME280;20381;54.498;18.206;2022-09-09T14:39:12;99487.44;;;12.73;91.82
34103;BME280;20381;54.498;18.206;2022-09-09T14:41:39;99491.58;;;12.78;91.70
34103;BME280;20381;54.498;18.206;2022-09-09T14:44:05;99497.19;;;12.79;91.54
34103;BME280;20381;54.498;18.206;2022-09-09T14:46:32;99494.20;;;12.78;91.58
34103;BME280;20381;54.498;18.206;2022-09-09T14:48:59;99498.86;;;12.80;91.72
34103;BME280;20381;54.498;18.206;2022-09-09T14:51:26;99504.68;;;12.78;91.54
34103;BME280;20381;54.498;18.206;2022-09-09T14:53:59;99507.48;;;12.74;91.63
34103;BME280;20381;54.498;18.206;2022-09-09T14:56:28;99514.02;;;12.67;91.56
34103;BME280;20381;54.498;18.206;2022-09-09T14:58:58;99509.80;;;12.65;91.72
34103;BME280;20381;54.498;18.206;2022-09-09T15:01:27;99505.77;;;12.59;91.60
34103;BME280;20381;54.498;18.206;2022-09-09T15:03:59;99506.78;;;12.57;91.79
34103;BME280;20381;54.498;18.206;2022-09-09T15:06:30;99504.63;;;12.56;91.88
34103;BME280;20381;54.498;18.206;2022-09-09T15:08:59;99501.65;;;12.55;91.93
34103;BME280;20381;54.498;18.206;2022-09-09T15:11:29;99504.82;;;12.53;91.94
34103;BME280;20381;54.498;18.206;2022-09-09T15:13:56;99505.55;;;12.48;92.00